createdAt,value
2017-01-09T00:00:46.525Z,-1.46
2017-01-09T00:01:56.863Z,-1.49
2017-01-09T00:03:07.219Z,-1.53
2017-01-09T00:04:17.962Z,-1.46
2017-01-09T00:05:28.312Z,-1.48
2017-01-09T00:06:39.061Z,-1.5
2017-01-09T00:07:49.413Z,-1.56
2017-01-09T00:09:00.163Z,-1.52
2017-01-09T00:10:10.898Z,-1.42
2017-01-09T00:11:21.236Z,-1.55
2017-01-09T00:12:31.968Z,-1.6
2017-01-09T00:13:42.710Z,-1.56
2017-01-09T00:14:52.660Z,-1.55
2017-01-09T00:16:02.998Z,-1.6
2017-01-09T00:17:13.333Z,-1.66
2017-01-09T00:18:23.668Z,-1.67
2017-01-09T00:19:34.390Z,-1.68
2017-01-09T00:20:44.728Z,-1.76
2017-01-09T00:21:55.476Z,-1.73
2017-01-09T00:23:05.854Z,-1.76
2017-01-09T00:24:15.812Z,-1.66
2017-01-09T00:25:26.546Z,-1.7
2017-01-09T00:26:36.512Z,-1.73
2017-01-09T00:27:46.855Z,-1.64
2017-01-09T00:28:57.580Z,-1.61
2017-01-09T00:30:07.918Z,-1.66
2017-01-09T00:31:18.654Z,-1.61
2017-01-09T00:32:29.001Z,-1.64
2017-01-09T00:33:39.730Z,-1.67
2017-01-09T00:34:50.514Z,-1.7
2017-01-09T00:36:01.260Z,-1.66
2017-01-09T00:37:11.608Z,-1.61
2017-01-09T00:38:22.350Z,-1.64
2017-01-09T00:39:32.687Z,-1.6
2017-01-09T00:40:43.023Z,-1.64
2017-01-09T00:41:53.759Z,-1.63
2017-01-09T00:43:04.092Z,-1.64
2017-01-09T00:44:14.425Z,-1.68
2017-01-09T00:45:24.777Z,-1.64
2017-01-09T00:46:35.512Z,-1.64
2017-01-09T00:47:46.240Z,-1.63
2017-01-09T00:48:56.960Z,-1.68
2017-01-09T00:50:07.311Z,-1.6
2017-01-09T00:51:17.633Z,-1.56
2017-01-09T00:52:27.976Z,-1.53
2017-01-09T00:53:38.307Z,-1.55
2017-01-09T00:54:48.249Z,-1.61
2017-01-09T00:55:58.990Z,-1.68
2017-01-09T00:57:09.707Z,-1.58
2017-01-09T00:58:20.065Z,-1.68
2017-01-09T00:59:30.797Z,-1.63
2017-01-09T01:00:41.536Z,-1.6
2017-01-09T01:01:52.264Z,-1.61
2017-01-09T01:03:03.010Z,-1.55
2017-01-09T01:04:12.954Z,-1.7
2017-01-09T01:05:23.686Z,-1.73
2017-01-09T01:06:34.071Z,-1.66
2017-01-09T01:07:44.018Z,-1.73
2017-01-09T01:08:54.363Z,-1.74
2017-01-09T01:10:04.723Z,-1.71
2017-01-09T01:11:15.058Z,-1.82
2017-01-09T01:12:25.409Z,-1.76
2017-01-09T01:13:36.151Z,-1.74
2017-01-09T01:14:46.501Z,-1.73
2017-01-09T01:15:57.236Z,-1.76
2017-01-09T01:17:07.183Z,-1.71
2017-01-09T01:18:17.532Z,-1.76
2017-01-09T01:19:28.263Z,-1.76
2017-01-09T01:20:38.997Z,-1.74
2017-01-09T01:21:49.733Z,-1.79
2017-01-09T01:23:00.465Z,-1.78
2017-01-09T01:24:11.204Z,-1.67
2017-01-09T01:25:21.949Z,-1.73
2017-01-09T01:26:32.720Z,-1.81
2017-01-09T01:27:43.051Z,-1.86
2017-01-09T01:28:53.798Z,-1.76
2017-01-09T01:30:04.529Z,-1.81
2017-01-09T01:31:14.467Z,-1.88
2017-01-09T01:32:24.805Z,-1.86
2017-01-09T01:33:35.159Z,-1.97
2017-01-09T01:34:45.888Z,-2
2017-01-09T01:35:56.302Z,-1.86
2017-01-09T01:37:06.632Z,-1.85
2017-01-09T01:38:16.583Z,-1.86
2017-01-09T01:39:26.540Z,-1.86
2017-01-09T01:40:37.274Z,-1.79
2017-01-09T01:41:47.658Z,-1.84
2017-01-09T01:42:58.433Z,-1.86
2017-01-09T01:44:08.772Z,-1.86
2017-01-09T01:45:18.727Z,-1.88
2017-01-09T01:46:29.065Z,-1.82
2017-01-09T01:47:39.796Z,-1.76
2017-01-09T01:48:50.148Z,-1.78
2017-01-09T01:50:00.484Z,-1.76
2017-01-09T01:51:11.210Z,-1.81
2017-01-09T01:52:21.562Z,-1.74
2017-01-09T01:53:31.903Z,-1.74
2017-01-09T01:54:42.237Z,-1.76
2017-01-09T01:55:52.959Z,-1.76
2017-01-09T01:57:02.518Z,-1.76
2017-01-09T01:58:13.242Z,-1.84
2017-01-09T01:59:23.572Z,-1.7
2017-01-09T02:00:33.919Z,-1.79
2017-01-09T02:01:44.661Z,-1.7
2017-01-09T02:02:54.217Z,-1.71
2017-01-09T02:04:04.544Z,-1.79
2017-01-09T02:05:15.279Z,-1.85
2017-01-09T02:06:26.017Z,-1.76
2017-01-09T02:07:36.360Z,-1.79
2017-01-09T02:08:47.098Z,-1.85
2017-01-09T02:09:56.648Z,-1.82
2017-01-09T02:11:06.594Z,-1.81
2017-01-09T02:12:17.321Z,-1.79
2017-01-09T02:13:28.053Z,-1.73
2017-01-09T02:14:37.989Z,-1.82
2017-01-09T02:15:48.716Z,-1.81
2017-01-09T02:16:59.463Z,-1.68
2017-01-09T02:18:10.195Z,-1.76
2017-01-09T02:19:20.931Z,-1.7
2017-01-09T02:20:31.283Z,-1.73
2017-01-09T02:21:42.000Z,-1.74
2017-01-09T02:22:51.941Z,-1.73
2017-01-09T02:24:02.683Z,-1.71
2017-01-09T02:25:13.021Z,-1.71
2017-01-09T02:26:23.766Z,-1.71
2017-01-09T02:27:34.494Z,-1.74
2017-01-09T02:28:44.817Z,-1.71
2017-01-09T02:29:55.547Z,-1.58
2017-01-09T02:31:05.893Z,-1.67
2017-01-09T02:32:16.632Z,-1.63
2017-01-09T02:33:27.358Z,-1.6
2017-01-09T02:34:37.308Z,-1.53
2017-01-09T02:35:47.246Z,-1.5
2017-01-09T02:36:57.185Z,-1.5
2017-01-09T02:38:07.930Z,-1.52
2017-01-09T02:39:18.270Z,-1.53
2017-01-09T02:40:29.017Z,-1.55
2017-01-09T02:41:39.398Z,-1.49
2017-01-09T02:42:50.140Z,-1.52
2017-01-09T02:44:00.867Z,-1.49
2017-01-09T02:45:11.195Z,-1.55
2017-01-09T02:46:21.917Z,-1.53
2017-01-09T02:47:32.646Z,-1.58
2017-01-09T02:48:42.984Z,-1.73
2017-01-09T02:49:53.325Z,-1.67
2017-01-09T02:51:04.054Z,-1.68
2017-01-09T02:52:14.415Z,-1.68
2017-01-09T02:53:24.349Z,-1.76
2017-01-09T02:54:34.691Z,-1.7
2017-01-09T02:55:45.029Z,-1.79
2017-01-09T02:56:54.986Z,-1.74
2017-01-09T02:58:05.737Z,-1.73
2017-01-09T02:59:16.478Z,-1.71
2017-01-09T03:00:27.241Z,-1.7
2017-01-09T03:01:37.981Z,-1.76
2017-01-09T03:33:21.702Z,-5.05
2017-01-09T03:34:32.014Z,-5.04
2017-01-09T03:35:41.568Z,-5.04
2017-01-09T03:36:52.294Z,-4.98
2017-01-09T03:38:02.238Z,-4.9
2017-01-09T03:39:12.608Z,-4.69
2017-01-09T03:40:22.592Z,-4.59
2017-01-09T03:41:32.914Z,-4.36
2017-01-09T03:42:42.852Z,-4.26
2017-01-09T03:43:53.583Z,-4.06
2017-01-09T03:45:03.909Z,-3.87
2017-01-09T03:46:14.264Z,-3.71
2017-01-09T03:47:25.012Z,-3.57
2017-01-09T03:48:35.394Z,-3.35
2017-01-09T03:49:46.361Z,-3.25
2017-01-09T03:50:57.152Z,-3.07
2017-01-09T03:52:07.890Z,-2.99
2017-01-09T03:53:18.629Z,-2.79
2017-01-09T03:54:29.343Z,-2.78
2017-01-09T03:55:39.681Z,-2.7
2017-01-09T03:56:50.013Z,-2.54
2017-01-09T03:58:00.754Z,-2.5
2017-01-09T03:59:11.504Z,-2.44
2017-01-09T04:00:22.243Z,-2.36
2017-01-09T04:01:32.190Z,-2.27
2017-01-09T04:02:42.132Z,-2.23
2017-01-09T04:03:52.467Z,-2.1
2017-01-09T04:05:03.197Z,-2.09
2017-01-09T04:06:13.135Z,-2.14
2017-01-09T04:07:23.468Z,-2.1
2017-01-09T04:08:34.210Z,-2.05
2017-01-09T04:09:44.156Z,-2.14
2017-01-09T04:10:54.882Z,-2.03
2017-01-09T04:12:05.628Z,-2.05
2017-01-09T04:13:16.365Z,-1.94
2017-01-09T04:14:27.107Z,-1.97
2017-01-09T04:15:37.844Z,-1.92
2017-01-09T04:16:48.589Z,-1.81
2017-01-09T04:17:59.323Z,-1.78
2017-01-09T04:19:09.707Z,-1.85
2017-01-09T04:20:20.051Z,-1.78
2017-01-09T04:21:30.378Z,-1.71
2017-01-09T04:22:41.126Z,-1.78
2017-01-09T04:23:51.467Z,-1.71
2017-01-09T04:25:01.809Z,-1.63
2017-01-09T04:26:12.146Z,-1.6
2017-01-09T04:27:22.484Z,-1.61
2017-01-09T04:28:33.212Z,-1.63
2017-01-09T04:29:43.550Z,-1.56
2017-01-09T04:30:53.898Z,-1.55
2017-01-09T04:32:04.230Z,-1.46
2017-01-09T04:33:14.977Z,-1.52
2017-01-09T04:34:25.697Z,-1.46
2017-01-09T04:35:36.045Z,-1.46
2017-01-09T04:36:46.383Z,-1.52
2017-01-09T04:37:57.114Z,-1.5
2017-01-09T04:39:07.841Z,-1.49
2017-01-09T04:40:18.183Z,-1.49
2017-01-09T04:41:28.916Z,-1.49
2017-01-09T04:42:38.861Z,-1.46
2017-01-09T04:43:48.811Z,-1.45
2017-01-09T04:44:59.159Z,-1.49
2017-01-09T04:46:09.906Z,-1.45
2017-01-09T04:47:20.644Z,-1.46
2017-01-09T04:48:31.411Z,-1.3
2017-01-09T04:49:42.136Z,-1.28
2017-01-09T04:50:52.477Z,-1.21
2017-01-09T04:52:03.214Z,-1.27
2017-01-09T04:53:13.943Z,-1.21
2017-01-09T04:54:24.286Z,-1.28
2017-01-09T04:55:34.635Z,-1.16
2017-01-09T04:56:45.367Z,-1.14
2017-01-09T04:57:55.708Z,-1.07
2017-01-09T04:59:06.048Z,-1.1
2017-01-09T05:00:15.993Z,-1.06
2017-01-09T05:01:26.740Z,-1.09
2017-01-09T05:02:37.456Z,-0.98
2017-01-09T05:03:48.192Z,-0.95
2017-01-09T05:04:58.926Z,-1.03
2017-01-09T05:06:09.657Z,-0.99
2017-01-09T05:07:20.403Z,-0.99
2017-01-09T05:08:31.139Z,-0.95
2017-01-09T05:09:41.507Z,-0.92
2017-01-09T05:10:51.097Z,-0.84
2017-01-09T05:12:01.844Z,-0.93
2017-01-09T05:13:12.187Z,-0.84
2017-01-09T05:14:22.138Z,-0.7
2017-01-09T05:15:32.880Z,-0.69
2017-01-09T05:16:43.621Z,-0.67
2017-01-09T05:17:53.963Z,-0.72
2017-01-09T05:19:04.294Z,-0.58
2017-01-09T05:20:14.629Z,-0.67
2017-01-09T05:21:25.365Z,-0.67
2017-01-09T05:22:35.730Z,-0.66
2017-01-09T05:23:46.507Z,-0.67
2017-01-09T05:24:57.259Z,-0.62
2017-01-09T05:26:07.660Z,-0.61
2017-01-09T05:27:18.391Z,-0.54
2017-01-09T05:28:28.348Z,-0.56
2017-01-09T05:29:38.692Z,-0.52
2017-01-09T05:30:49.437Z,-0.51
2017-01-09T05:31:58.584Z,-0.51
2017-01-09T05:33:08.541Z,-0.51
2017-01-09T05:34:18.499Z,-0.43
2017-01-09T05:35:29.236Z,-0.49
2017-01-09T05:36:39.576Z,-0.49
2017-01-09T05:37:50.314Z,-0.34
2017-01-09T05:39:01.044Z,-0.49
2017-01-09T05:40:11.778Z,-0.45
2017-01-09T05:41:22.498Z,-0.45
2017-01-09T05:42:32.450Z,-0.37
2017-01-09T05:43:42.777Z,-0.33
2017-01-09T05:44:53.759Z,-0.34
2017-01-09T05:46:04.099Z,-0.28
2017-01-09T05:47:14.840Z,-0.34
2017-01-09T05:48:25.581Z,-0.4
2017-01-09T05:49:35.932Z,-0.36
2017-01-09T05:50:46.677Z,-0.2
2017-01-09T05:51:57.014Z,-0.27
2017-01-09T05:53:07.354Z,-0.3
2017-01-09T05:54:17.707Z,-0.31
2017-01-09T05:55:28.442Z,-0.37
2017-01-09T05:56:39.179Z,-0.34
2017-01-09T05:57:49.928Z,-0.37
2017-01-09T05:59:00.674Z,-0.31
2017-01-09T06:00:11.035Z,-0.3
2017-01-09T06:01:21.367Z,-0.23
2017-01-09T06:02:31.705Z,-0.16
2017-01-09T06:03:42.041Z,-0.23
2017-01-09T06:04:52.767Z,-0.25
2017-01-09T06:06:03.118Z,-0.27
2017-01-09T06:07:13.891Z,-0.25
2017-01-09T06:08:24.239Z,-0.27
2017-01-09T06:09:34.175Z,-0.2
2017-01-09T06:10:44.906Z,-0.27
2017-01-09T06:11:55.238Z,-0.2
2017-01-09T06:13:06.000Z,-0.25
2017-01-09T06:14:16.721Z,-0.25
2017-01-09T06:15:27.053Z,-0.2
2017-01-09T06:16:37.015Z,-0.25
2017-01-09T06:17:47.746Z,-0.19
2017-01-09T06:18:58.090Z,-0.1
2017-01-09T06:20:08.029Z,-0.07
2017-01-09T06:21:18.378Z,0.06
2017-01-09T06:22:29.110Z,0.02
2017-01-09T06:23:39.061Z,-0.01
2017-01-09T06:24:49.392Z,0.05
2017-01-09T06:25:59.977Z,0.1
2017-01-09T06:27:10.315Z,0.02
2017-01-09T06:28:21.049Z,-0.02
2017-01-09T06:29:31.779Z,0.02
2017-01-09T06:30:42.120Z,0.01
2017-01-09T06:31:52.486Z,0.01
2017-01-09T06:33:03.215Z,0.01
2017-01-09T06:34:13.568Z,-0.01
2017-01-09T06:35:24.307Z,0.02
2017-01-09T06:36:35.044Z,0.08
2017-01-09T06:37:45.775Z,0.08
2017-01-09T06:38:56.507Z,0.03
2017-01-09T06:40:06.067Z,-0.04
2017-01-09T06:41:16.026Z,0.01
2017-01-09T06:42:26.367Z,-0.02
2017-01-09T06:43:37.103Z,0.06
2017-01-09T06:44:47.836Z,0.06
2017-01-09T06:45:58.178Z,0.01
2017-01-09T06:47:08.944Z,-0.09
2017-01-09T06:48:19.690Z,-0.09
2017-01-09T06:49:30.407Z,-0.2
2017-01-09T06:50:40.352Z,-0.2
2017-01-09T06:51:51.087Z,-0.19
2017-01-09T06:53:01.042Z,-0.23
2017-01-09T06:54:11.418Z,-0.28
2017-01-09T06:55:22.162Z,-0.31
2017-01-09T06:56:32.498Z,-0.41
2017-01-09T06:57:42.830Z,-0.4
2017-01-09T06:58:53.567Z,-0.45
2017-01-09T07:00:03.903Z,-0.49
2017-01-09T07:01:14.635Z,-0.56
2017-01-09T07:02:25.391Z,-0.67
2017-01-09T07:03:35.729Z,-0.73
2017-01-09T07:04:46.084Z,-0.61
2017-01-09T07:05:56.431Z,-0.62
2017-01-09T07:07:07.145Z,-0.73
2017-01-09T07:08:17.489Z,-0.59
2017-01-09T07:09:28.247Z,-0.67
2017-01-09T07:10:37.414Z,-0.79
2017-01-09T07:11:48.152Z,-0.72
2017-01-09T07:12:58.491Z,-0.74
2017-01-09T07:14:08.830Z,-0.73
2017-01-09T07:15:19.574Z,-0.77
2017-01-09T07:16:30.297Z,-0.79
2017-01-09T07:17:41.028Z,-0.79
2017-01-09T07:18:51.768Z,-0.73
2017-01-09T07:20:02.507Z,-0.77
2017-01-09T07:21:12.838Z,-0.73
2017-01-09T07:22:23.181Z,-0.79
2017-01-09T07:23:33.528Z,-0.7
2017-01-09T07:24:43.870Z,-0.64
2017-01-09T07:25:53.834Z,-0.7
2017-01-09T07:27:03.392Z,-0.64
2017-01-09T07:28:13.335Z,-0.69
2017-01-09T07:29:24.079Z,-0.76
2017-01-09T07:30:34.412Z,-0.77
2017-01-09T07:31:44.763Z,-0.73
2017-01-09T07:32:55.491Z,-0.69
2017-01-09T07:34:05.877Z,-0.73
2017-01-09T07:35:16.585Z,-0.79
2017-01-09T07:36:26.912Z,-0.74
2017-01-09T07:37:37.262Z,-0.69
2017-01-09T07:38:47.993Z,-0.73
2017-01-09T07:39:58.731Z,-0.72
2017-01-09T07:41:09.073Z,-0.67
2017-01-09T07:42:19.838Z,-0.79
2017-01-09T07:43:29.796Z,-0.79
2017-01-09T07:44:40.138Z,-0.69
2017-01-09T07:45:50.483Z,-0.77
2017-01-09T07:47:01.260Z,-0.79
2017-01-09T07:48:11.215Z,-0.58
2017-01-09T07:49:21.953Z,-0.61
2017-01-09T07:50:32.301Z,-0.56
2017-01-09T07:51:42.651Z,-0.69
2017-01-09T07:52:53.036Z,-0.64
2017-01-09T07:54:02.974Z,-0.55
2017-01-09T07:55:12.921Z,-0.55
2017-01-09T07:56:23.273Z,-0.52
2017-01-09T07:57:33.630Z,-0.52
2017-01-09T07:58:44.396Z,-0.45
2017-01-09T07:59:55.122Z,-0.45
2017-01-09T08:01:05.856Z,-0.49
2017-01-09T08:02:16.187Z,-0.51
2017-01-09T08:03:26.933Z,-0.37
2017-01-09T08:04:37.687Z,-0.43
2017-01-09T08:05:48.028Z,-0.38
2017-01-09T08:06:58.362Z,-0.37
2017-01-09T08:08:08.333Z,-0.37
2017-01-09T08:09:19.087Z,-0.45
2017-01-09T08:10:29.428Z,-0.38
2017-01-09T08:11:39.775Z,-0.41
2017-01-09T08:12:50.522Z,-0.45
2017-01-09T08:14:00.479Z,-0.46
2017-01-09T08:15:10.432Z,-0.49
2017-01-09T08:16:21.177Z,-0.38
2017-01-09T08:17:31.523Z,-0.46
2017-01-09T08:18:42.261Z,-0.51
2017-01-09T08:19:52.998Z,-0.4
2017-01-09T08:21:03.719Z,-0.48
2017-01-09T08:22:14.065Z,-0.55
2017-01-09T08:23:24.794Z,-0.52
2017-01-09T08:24:35.139Z,-0.4
2017-01-09T08:25:45.871Z,-0.45
2017-01-09T08:26:56.261Z,-0.31
2017-01-09T08:28:06.990Z,-0.34
2017-01-09T08:29:17.327Z,-0.33
2017-01-09T08:30:27.659Z,-0.38
2017-01-09T08:31:37.613Z,-0.2
2017-01-09T08:32:48.359Z,-0.34
2017-01-09T08:33:58.712Z,-0.31
2017-01-09T08:35:08.260Z,-0.36
2017-01-09T08:36:18.646Z,-0.38
2017-01-09T08:37:28.984Z,-0.22
2017-01-09T08:38:39.329Z,-0.2
2017-01-09T08:39:49.686Z,-0.13
2017-01-09T08:41:00.021Z,-0.16
2017-01-09T08:42:10.370Z,-0.15
2017-01-09T08:43:21.126Z,-0.16
2017-01-09T08:44:31.490Z,-0.1
2017-01-09T08:45:41.825Z,-0.01
2017-01-09T08:46:52.165Z,-0.04
2017-01-09T08:48:02.911Z,0.05
2017-01-09T08:49:13.259Z,-0.04
2017-01-09T08:50:24.011Z,0.01
2017-01-09T08:51:34.357Z,0.01
2017-01-09T08:52:45.107Z,-0.05
2017-01-09T08:53:55.780Z,-0.09
2017-01-09T08:55:06.523Z,-0.16
2017-01-09T08:56:16.912Z,-0.04
2017-01-09T08:57:26.886Z,-0.09
2017-01-09T08:58:37.264Z,-0.13
2017-01-09T08:59:48.030Z,-0.09
2017-01-09T09:00:58.381Z,0.06
2017-01-09T09:02:10.634Z,-0.02
2017-01-09T09:03:21.399Z,0.08
2017-01-09T09:04:32.142Z,0.05
2017-01-09T09:05:42.499Z,0.16
2017-01-09T09:06:53.240Z,0.17
2017-01-09T09:08:03.567Z,0.2
2017-01-09T09:09:13.923Z,0.31
2017-01-09T09:10:24.705Z,0.35
2017-01-09T09:11:35.452Z,0.39
2017-01-09T09:12:45.814Z,0.45
2017-01-09T09:13:56.656Z,0.5
2017-01-09T09:15:07.045Z,0.48
2017-01-09T09:16:17.846Z,0.48
2017-01-09T09:17:28.239Z,0.47
2017-01-09T09:18:39.046Z,0.63
2017-01-09T09:19:49.947Z,0.61
2017-01-09T09:21:00.776Z,0.64
2017-01-09T09:22:11.208Z,0.81
2017-01-09T09:23:22.002Z,0.86
2017-01-09T09:24:32.805Z,0.82
2017-01-09T09:25:43.662Z,0.97
2017-01-09T09:26:54.115Z,1.07
2017-01-09T09:28:04.907Z,1.15
2017-01-09T09:29:14.917Z,1.17
2017-01-09T09:30:25.803Z,1.29
2017-01-09T09:31:35.944Z,1.28
2017-01-09T09:32:46.320Z,1.32
2017-01-09T09:33:57.158Z,1.47
2017-01-09T09:35:07.209Z,1.46
2017-01-09T09:36:18.019Z,1.5
2017-01-09T09:37:28.482Z,1.64
2017-01-09T09:38:38.829Z,1.66
2017-01-09T09:39:49.594Z,1.72
2017-01-09T09:40:59.960Z,1.72
2017-01-09T09:42:10.347Z,1.79
2017-01-09T09:43:20.734Z,1.86
2017-01-09T09:44:31.083Z,1.92
2017-01-09T09:45:41.428Z,1.98
2017-01-09T09:46:51.789Z,2.02
2017-01-09T09:48:02.539Z,2.09
2017-01-09T09:49:13.295Z,2.16
2017-01-09T09:50:23.644Z,2.2
2017-01-09T09:51:34.030Z,2.31
2017-01-09T09:52:44.812Z,2.41
2017-01-09T09:53:55.570Z,2.4
2017-01-09T09:55:05.162Z,2.44
2017-01-09T09:56:15.906Z,2.48
2017-01-09T09:57:26.263Z,2.58
2017-01-09T09:58:37.012Z,2.58
2017-01-09T09:59:47.763Z,2.55
2017-01-09T10:00:58.098Z,2.63
2017-01-09T10:02:08.847Z,2.6
2017-01-09T10:03:18.775Z,2.6
2017-01-09T10:04:29.534Z,2.7
2017-01-09T10:05:40.276Z,2.78
2017-01-09T10:06:51.028Z,2.78
2017-01-09T10:08:01.815Z,2.76
2017-01-09T10:09:12.631Z,2.88
2017-01-09T10:10:23.415Z,2.87
2017-01-09T10:11:34.146Z,2.84
2017-01-09T10:12:44.483Z,3.01
2017-01-09T10:13:54.838Z,2.93
2017-01-09T10:15:05.589Z,3.08
2017-01-09T10:16:15.939Z,3.13
2017-01-09T10:17:26.289Z,3.17
2017-01-09T10:18:36.636Z,3.19
2017-01-09T10:19:47.362Z,3.19
2017-01-09T10:20:57.707Z,3.09
2017-01-09T10:22:08.456Z,3.08
2017-01-09T10:23:18.804Z,3.02
2017-01-09T10:24:29.154Z,3.14
2017-01-09T10:25:39.937Z,3.14
2017-01-09T10:26:50.283Z,3.03
2017-01-09T10:28:01.016Z,2.99
2017-01-09T10:29:10.571Z,2.98
2017-01-09T10:30:20.535Z,2.96
2017-01-09T10:31:31.275Z,3.08
2017-01-09T10:32:42.017Z,3.06
2017-01-09T10:33:52.773Z,3.05
2017-01-09T10:35:03.554Z,3.03
2017-01-09T10:36:14.296Z,3.11
2017-01-09T10:37:24.630Z,3.13
2017-01-09T10:38:34.967Z,3.2
2017-01-09T10:39:44.916Z,3.21
2017-01-09T10:40:55.660Z,3.29
2017-01-09T10:42:06.400Z,3.27
2017-01-09T10:43:16.813Z,3.43
2017-01-09T10:44:27.146Z,3.51
2017-01-09T10:45:37.522Z,3.67
2017-01-09T10:46:47.490Z,3.75
2017-01-09T10:47:58.294Z,3.84
2017-01-09T10:49:08.651Z,3.92
2017-01-09T10:50:19.398Z,3.97
2017-01-09T10:51:30.132Z,4.08
2017-01-09T10:52:40.097Z,4.22
2017-01-09T10:53:50.434Z,4.15
2017-01-09T10:55:01.159Z,4.35
2017-01-09T10:56:11.512Z,4.39
2017-01-09T10:57:21.880Z,4.46
2017-01-09T10:58:31.435Z,4.3
2017-01-09T10:59:41.771Z,4.29
2017-01-09T11:00:52.532Z,4.18
2017-01-09T11:02:03.286Z,4.12
2017-01-09T11:03:13.622Z,4.07
2017-01-09T11:04:23.960Z,3.94
2017-01-09T11:05:34.720Z,3.94
2017-01-09T11:06:45.474Z,3.84
2017-01-09T11:07:55.816Z,3.85
2017-01-09T11:09:06.165Z,3.66
2017-01-09T11:10:16.158Z,3.63
2017-01-09T11:11:26.521Z,3.6
2017-01-09T11:12:36.853Z,3.57
2017-01-09T11:13:47.594Z,3.64
2017-01-09T11:14:58.339Z,3.54
2017-01-09T11:16:08.301Z,3.61
2017-01-09T11:17:19.103Z,3.49
2017-01-09T11:18:29.459Z,3.69
2017-01-09T11:19:40.212Z,3.69
2017-01-09T11:20:50.563Z,3.74
2017-01-09T11:22:01.300Z,3.58
2017-01-09T11:23:12.053Z,3.72
2017-01-09T11:24:22.794Z,3.63
2017-01-09T11:25:33.531Z,3.66
2017-01-09T11:26:44.263Z,3.64
2017-01-09T11:27:53.844Z,3.54
2017-01-09T11:29:04.591Z,3.58
2017-01-09T11:30:14.548Z,3.58
2017-01-09T11:31:24.898Z,3.72
2017-01-09T11:32:35.640Z,3.67
2017-01-09T11:33:45.577Z,3.6
2017-01-09T11:34:56.325Z,3.74
2017-01-09T11:36:06.687Z,3.63
2017-01-09T11:37:17.427Z,3.69
2017-01-09T11:38:27.788Z,3.64
2017-01-09T11:39:38.137Z,3.63
2017-01-09T11:40:48.903Z,3.54
2017-01-09T11:41:58.859Z,3.58
2017-01-09T11:43:09.606Z,3.51
2017-01-09T11:44:19.560Z,3.54
2017-01-09T11:45:30.308Z,3.42
2017-01-09T11:46:40.646Z,3.53
2017-01-09T11:47:51.386Z,3.57
2017-01-09T11:55:21.954Z,3.43
2017-01-09T11:56:31.904Z,3.45
2017-01-09T11:57:41.882Z,3.4
2017-01-09T11:58:52.627Z,3.49
2017-01-09T12:00:03.397Z,3.53
2017-01-09T12:01:14.130Z,3.53
2017-01-09T12:02:24.886Z,3.42
2017-01-09T12:03:35.236Z,3.42
2017-01-09T12:04:44.797Z,3.39
2017-01-09T12:05:55.550Z,3.4
2017-01-09T12:07:05.927Z,3.43
2017-01-09T12:08:16.295Z,3.42
2017-01-09T12:09:27.049Z,3.37
2017-01-09T12:10:37.797Z,3.35
2017-01-09T12:11:48.565Z,3.32
2017-01-09T12:12:58.958Z,3.45
2017-01-09T12:14:09.335Z,3.45
2017-01-09T12:15:19.694Z,3.48
2017-01-09T12:16:30.074Z,3.43
2017-01-09T12:17:40.441Z,3.39
2017-01-09T12:18:50.804Z,3.26
2017-01-09T12:20:00.758Z,3.4
2017-01-09T12:21:11.504Z,3.29
2017-01-09T12:22:21.865Z,3.32
2017-01-09T12:23:32.629Z,3.34
2017-01-09T12:24:42.998Z,3.23
2017-01-09T12:25:52.955Z,3.24
2017-01-09T12:27:03.324Z,3.13
2017-01-09T12:28:14.099Z,3.21
2017-01-09T12:29:24.107Z,3.24
2017-01-09T12:30:34.879Z,3.29
2017-01-09T12:31:45.271Z,3.23
2017-01-09T12:32:56.013Z,3.17
2017-01-09T12:34:06.374Z,3.08
2017-01-09T12:35:16.339Z,2.98
2017-01-09T12:36:27.099Z,2.9
2017-01-09T12:37:37.868Z,2.9
2017-01-09T12:38:48.629Z,2.91
2017-01-09T12:39:58.975Z,2.88
2017-01-09T12:41:09.760Z,2.81
2017-01-09T12:42:20.516Z,2.73
2017-01-09T12:43:30.096Z,2.87
2017-01-09T12:44:40.500Z,2.96
2017-01-09T12:45:51.273Z,2.9
2017-01-09T12:47:01.644Z,2.9
2017-01-09T12:48:11.615Z,2.76
2017-01-09T12:49:22.005Z,2.77
2017-01-09T12:50:31.565Z,2.77
2017-01-09T12:51:41.520Z,2.77
2017-01-09T12:52:51.878Z,2.73
2017-01-09T12:54:02.683Z,2.77
2017-01-09T12:55:13.101Z,2.7
2017-01-09T12:56:23.871Z,2.67
2017-01-09T12:57:34.628Z,2.77
2017-01-09T12:58:45.001Z,2.6
2017-01-09T12:59:55.383Z,2.65
2017-01-09T13:01:06.173Z,2.47
2017-01-09T13:02:16.520Z,2.6
2017-01-09T13:03:27.289Z,2.62
2017-01-09T13:04:38.044Z,2.47
2017-01-09T13:05:48.024Z,2.63
2017-01-09T13:06:58.788Z,2.59
2017-01-09T13:08:09.169Z,2.58
2017-01-09T13:09:19.916Z,2.54
2017-01-09T13:10:29.876Z,2.49
2017-01-09T13:11:40.236Z,2.52
2017-01-09T13:12:50.598Z,2.48
2017-01-09T13:14:00.955Z,2.58
2017-01-09T13:15:10.909Z,2.6
2017-01-09T13:16:21.691Z,2.59
2017-01-09T13:17:32.446Z,2.62
2017-01-09T13:18:43.195Z,2.58
2017-01-09T13:19:53.948Z,2.6
2017-01-09T13:21:04.701Z,2.67
2017-01-09T13:22:14.274Z,2.6
2017-01-09T13:23:23.854Z,2.54
2017-01-09T13:24:34.184Z,2.63
2017-01-09T13:25:44.540Z,2.59
2017-01-09T13:26:54.906Z,2.48
2017-01-09T13:28:05.664Z,2.49
2017-01-09T13:29:15.616Z,2.47
2017-01-09T13:30:25.989Z,2.47
2017-01-09T13:31:36.378Z,2.52
2017-01-09T13:32:47.107Z,2.51
2017-01-09T13:33:57.487Z,2.49
2017-01-09T13:35:07.844Z,2.45
2017-01-09T13:36:17.791Z,2.41
2017-01-09T13:37:28.551Z,2.41
2017-01-09T13:38:38.504Z,2.41
2017-01-09T13:39:49.285Z,2.44
2017-01-09T13:41:01.323Z,2.45
2017-01-09T13:42:11.668Z,2.44
2017-01-09T13:43:22.027Z,2.44
2017-01-09T13:44:32.400Z,2.45
2017-01-09T13:45:41.959Z,2.51
2017-01-09T13:46:52.331Z,2.55
2017-01-09T13:48:03.069Z,2.62
2017-01-09T13:49:13.822Z,2.6
2017-01-09T13:50:24.603Z,2.55
2017-01-09T13:51:35.368Z,2.6
2017-01-09T13:52:45.745Z,2.58
2017-01-09T13:53:56.101Z,2.54
2017-01-09T13:55:06.453Z,2.54
2017-01-09T13:56:16.420Z,2.47
2017-01-09T13:57:26.371Z,2.45
2017-01-09T13:58:37.175Z,2.4
2017-01-09T13:59:47.925Z,2.34
2017-01-09T14:00:58.277Z,2.34
2017-01-09T14:02:08.636Z,2.33
2017-01-09T14:03:19.399Z,2.38
2017-01-09T14:04:29.369Z,2.36
2017-01-09T14:05:40.114Z,2.3
2017-01-09T14:06:50.866Z,2.3
2017-01-09T14:08:01.233Z,2.3
2017-01-09T14:09:11.598Z,2.33
2017-01-09T14:10:21.955Z,2.26
2017-01-09T14:11:31.933Z,2.31
2017-01-09T14:12:42.703Z,2.33
2017-01-09T14:13:53.063Z,2.31
2017-01-09T14:15:03.431Z,2.33
2017-01-09T14:16:14.201Z,2.31
2017-01-09T14:17:25.194Z,2.15
2017-01-09T14:18:35.551Z,2.13
2017-01-09T14:19:46.323Z,2.05
2017-01-09T14:20:57.066Z,2.06
2017-01-09T14:22:07.823Z,2.04
2017-01-09T14:23:18.170Z,1.98
2017-01-09T14:24:28.128Z,1.93
2017-01-09T14:25:38.467Z,1.92
2017-01-09T14:26:49.227Z,1.92
2017-01-09T14:27:59.624Z,1.92
2017-01-09T14:29:10.396Z,1.89
2017-01-09T14:30:21.157Z,1.83
2017-01-09T14:31:31.890Z,1.82
2017-01-09T14:32:42.638Z,1.83
2017-01-09T14:33:52.267Z,1.86
2017-01-09T14:35:03.031Z,1.84
2017-01-09T14:36:13.384Z,1.82
2017-01-09T14:37:24.146Z,1.83
2017-01-09T14:38:33.712Z,1.78
2017-01-09T14:39:44.451Z,1.83
2017-01-09T14:40:54.787Z,1.78
2017-01-09T14:42:05.550Z,1.86
2017-01-09T14:43:16.300Z,1.84
2017-01-09T14:44:27.056Z,1.84
2017-01-09T14:45:38.057Z,1.69
2017-01-09T14:46:48.415Z,1.71
2017-01-09T14:47:58.772Z,1.69
2017-01-09T14:49:08.730Z,1.66
2017-01-09T14:50:19.085Z,1.71
2017-01-09T14:51:29.052Z,1.69
2017-01-09T14:52:39.471Z,1.76
2017-01-09T14:53:50.285Z,1.78
2017-01-09T14:55:00.248Z,1.65
2017-01-09T14:56:11.024Z,1.82
2017-01-09T14:57:21.371Z,1.65
2017-01-09T14:58:31.750Z,1.72
2017-01-09T14:59:42.520Z,1.82
2017-01-09T15:00:52.483Z,1.74
2017-01-09T15:02:03.216Z,1.71
2017-01-09T15:03:13.969Z,1.64
2017-01-09T15:04:23.926Z,1.64
2017-01-09T15:05:34.701Z,1.53
2017-01-09T15:06:45.070Z,1.58
2017-01-09T15:07:55.427Z,1.64
2017-01-09T15:09:06.189Z,1.58
2017-01-09T15:10:16.557Z,1.66
2017-01-09T15:11:26.907Z,1.5
2017-01-09T15:12:37.651Z,1.65
2017-01-09T15:13:47.622Z,1.71
2017-01-09T15:14:57.195Z,1.58
2017-01-09T15:16:07.835Z,1.61
2017-01-09T15:17:18.719Z,1.56
2017-01-09T15:18:29.528Z,1.56
2017-01-09T15:19:39.891Z,1.44
2017-01-09T15:20:50.259Z,1.48
2017-01-09T15:22:01.013Z,1.32
2017-01-09T15:23:11.771Z,1.32
2017-01-09T15:24:22.524Z,1.35
2017-01-09T15:25:32.874Z,1.42
2017-01-09T15:26:43.631Z,1.48
2017-01-09T15:27:54.021Z,1.32
2017-01-09T15:29:04.802Z,1.32
2017-01-09T15:30:15.575Z,1.32
2017-01-09T15:31:26.349Z,1.24
2017-01-09T15:32:36.308Z,1.24
2017-01-09T15:33:47.088Z,1.22
2017-01-09T15:34:57.841Z,1.14
2017-01-09T15:36:08.588Z,1.11
2017-01-09T15:37:18.949Z,1.11
2017-01-09T15:38:29.301Z,1.26
2017-01-09T15:39:40.054Z,1.12
2017-01-09T15:40:50.801Z,1.17
2017-01-09T15:42:00.771Z,1.22
2017-01-09T15:43:11.527Z,1.15
2017-01-09T15:44:22.269Z,1.17
2017-01-09T15:45:32.225Z,1.18
2017-01-09T15:46:41.777Z,1.12
2017-01-09T15:47:52.134Z,1.18
2017-01-09T15:49:02.884Z,1.08
2017-01-09T15:50:13.223Z,1.21
2017-01-09T15:51:23.186Z,1.14
2017-01-09T15:52:33.931Z,1.18
2017-01-09T15:53:43.920Z,1.21
2017-01-09T15:54:54.670Z,1.17
2017-01-09T15:56:05.409Z,1.2
2017-01-09T15:57:15.790Z,1.22
2017-01-09T15:58:25.348Z,1.2
2017-01-09T15:59:35.713Z,1.17
2017-01-09T16:00:46.059Z,1.07
2017-01-09T16:01:56.801Z,1.03